sensor_id;sensor_type;location;lat;lon;timestamp;pressure;altitude;pressure_sealevel;temperature;humidity
63447;BME280;49577;49.872;6.190;2023-11-18T00:01:21;100335.75;;;5.06;90.62
63447;BME280;49577;49.872;6.190;2023-11-18T00:03:46;100330.17;;;5.07;90.49
63447;BME280;49577;49.872;6.190;2023-11-18T00:06:11;100323.13;;;5.05;90.27
63447;BME280;49577;49.872;6.190;2023-11-18T00:08:37;100312.93;;;5.05;90.21
63447;BME280;49577;49.872;6.190;2023-11-18T00:11:03;100299.61;;;5.04;90.20
63447;BME280;49577;49.872;6.190;2023-11-18T00:13:28;100301.00;;;5.04;90.17
63447;BME280;49577;49.872;6.190;2023-11-18T00:15:54;100306.38;;;5.04;90.12
63447;BME280;49577;49.872;6.190;2023-11-18T00:18:19;100314.34;;;5.04;90.12
63447;BME280;49577;49.872;6.190;2023-11-18T00:20:44;100315.73;;;5.03;90.00
63447;BME280;49577;49.872;6.190;2023-11-18T00:23:09;100318.16;;;5.03;89.94
63447;BME280;49577;49.872;6.190;2023-11-18T00:25:35;100321.81;;;5.03;89.93
63447;BME280;49577;49.872;6.190;2023-11-18T00:28:01;100326.71;;;5.02;89.76
63447;BME280;49577;49.872;6.190;2023-11-18T00:30:26;100326.07;;;4.99;89.69
63447;BME280;49577;49.872;6.190;2023-11-18T00:32:53;100321.23;;;4.99;89.92
63447;BME280;49577;49.872;6.190;2023-11-18T00:35:18;100322.91;;;5.01;90.02
63447;BME280;49577;49.872;6.190;2023-11-18T00:37:43;100321.45;;;5.04;90.24
63447;BME280;49577;49.872;6.190;2023-11-18T00:40:09;100325.20;;;5.06;90.13
63447;BME280;49577;49.872;6.190;2023-11-18T00:42:34;100323.15;;;5.05;90.03
63447;BME280;49577;49.872;6.190;2023-11-18T00:44:59;100319.88;;;5.04;89.95
63447;BME280;49577;49.872;6.190;2023-11-18T00:47:25;100321.33;;;5.02;89.78
63447;BME280;49577;49.872;6.190;2023-11-18T00:49:50;100318.58;;;5.01;89.91
63447;BME280;49577;49.872;6.190;2023-11-18T00:52:17;100315.45;;;5.01;89.77
63447;BME280;49577;49.872;6.190;2023-11-18T00:54:43;100315.88;;;4.99;89.72
63447;BME280;49577;49.872;6.190;2023-11-18T00:57:08;100320.55;;;4.93;89.64
63447;BME280;49577;49.872;6.190;2023-11-18T00:59:34;100321.95;;;4.86;89.50
63447;BME280;49577;49.872;6.190;2023-11-18T01:01:59;100317.81;;;4.79;89.62
63447;BME280;49577;49.872;6.190;2023-11-18T01:04:24;100314.63;;;4.75;90.10
63447;BME280;49577;49.872;6.190;2023-11-18T01:06:50;100317.17;;;4.77;90.38
63447;BME280;49577;49.872;6.190;2023-11-18T01:09:16;100321.77;;;4.80;90.32
63447;BME280;49577;49.872;6.190;2023-11-18T01:11:41;100320.95;;;4.78;90.11
63447;BME280;49577;49.872;6.190;2023-11-18T01:14:07;100319.75;;;4.78;90.17
63447;BME280;49577;49.872;6.190;2023-11-18T01:16:32;100314.58;;;4.77;90.12
63447;BME280;49577;49.872;6.190;2023-11-18T01:18:59;100314.89;;;4.78;90.25
63447;BME280;49577;49.872;6.190;2023-11-18T01:21:24;100315.08;;;4.77;89.93
63447;BME280;49577;49.872;6.190;2023-11-18T01:23:49;100323.51;;;4.74;89.89
63447;BME280;49577;49.872;6.190;2023-11-18T01:26:15;100328.73;;;4.72;89.96
63447;BME280;49577;49.872;6.190;2023-11-18T01:28:41;100338.28;;;4.71;90.08
63447;BME280;49577;49.872;6.190;2023-11-18T01:31:08;100344.38;;;4.70;89.98
63447;BME280;49577;49.872;6.190;2023-11-18T01:33:35;100343.47;;;4.64;89.69
63447;BME280;49577;49.872;6.190;2023-11-18T01:36:02;100339.92;;;4.62;89.99
63447;BME280;49577;49.872;6.190;2023-11-18T01:38:28;100341.02;;;4.60;90.14
63447;BME280;49577;49.872;6.190;2023-11-18T01:40:53;100340.45;;;4.62;90.40
63447;BME280;49577;49.872;6.190;2023-11-18T01:43:18;100336.90;;;4.65;90.42
63447;BME280;49577;49.872;6.190;2023-11-18T01:45:44;100335.14;;;4.66;90.12
63447;BME280;49577;49.872;6.190;2023-11-18T01:48:09;100331.88;;;4.64;90.09
63447;BME280;49577;49.872;6.190;2023-11-18T01:50:38;100332.90;;;4.66;90.28
63447;BME280;49577;49.872;6.190;2023-11-18T01:53:05;100326.65;;;4.66;90.16
63447;BME280;49577;49.872;6.190;2023-11-18T01:55:30;100326.23;;;4.68;90.06
63447;BME280;49577;49.872;6.190;2023-11-18T01:57:56;100326.83;;;4.66;89.87
63447;BME280;49577;49.872;6.190;2023-11-18T02:00:23;100329.42;;;4.66;90.11
63447;BME280;49577;49.872;6.190;2023-11-18T02:02:49;100335.48;;;4.66;90.27
63447;BME280;49577;49.872;6.190;2023-11-18T02:05:14;100331.36;;;4.65;90.10
63447;BME280;49577;49.872;6.190;2023-11-18T02:07:40;100326.17;;;4.65;90.07
63447;BME280;49577;49.872;6.190;2023-11-18T02:10:06;100324.94;;;4.65;90.25
63447;BME280;49577;49.872;6.190;2023-11-18T02:12:38;100326.07;;;4.68;90.49
63447;BME280;49577;49.872;6.190;2023-11-18T02:15:08;100328.79;;;4.70;90.41
63447;BME280;49577;49.872;6.190;2023-11-18T02:17:35;100329.77;;;4.72;90.37
63447;BME280;49577;49.872;6.190;2023-11-18T02:20:02;100332.66;;;4.74;90.27
63447;BME280;49577;49.872;6.190;2023-11-18T02:22:31;100338.61;;;4.78;90.39
63447;BME280;49577;49.872;6.190;2023-11-18T02:24:56;100337.06;;;4.77;90.26
63447;BME280;49577;49.872;6.190;2023-11-18T02:27:26;100332.59;;;4.76;90.21
63447;BME280;49577;49.872;6.190;2023-11-18T02:29:52;100333.81;;;4.76;90.26
63447;BME280;49577;49.872;6.190;2023-11-18T02:34:45;100344.53;;;4.76;90.32
63447;BME280;49577;49.872;6.190;2023-11-18T02:37:13;100345.88;;;4.77;90.31
63447;BME280;49577;49.872;6.190;2023-11-18T02:39:39;100341.06;;;4.76;90.36
63447;BME280;49577;49.872;6.190;2023-11-18T02:42:08;100340.72;;;4.76;90.30
63447;BME280;49577;49.872;6.190;2023-11-18T02:44:34;100340.45;;;4.74;90.22
63447;BME280;49577;49.872;6.190;2023-11-18T02:47:00;100337.41;;;4.71;90.13
63447;BME280;49577;49.872;6.190;2023-11-18T02:49:25;100333.09;;;4.71;90.33
63447;BME280;49577;49.872;6.190;2023-11-18T02:51:51;100330.95;;;4.73;90.62
63447;BME280;49577;49.872;6.190;2023-11-18T02:54:16;100335.16;;;4.77;90.62
63447;BME280;49577;49.872;6.190;2023-11-18T02:56:41;100333.56;;;4.79;90.61
63447;BME280;49577;49.872;6.190;2023-11-18T02:59:07;100327.67;;;4.79;90.41
63447;BME280;49577;49.872;6.190;2023-11-18T03:01:32;100324.91;;;4.79;90.42
63447;BME280;49577;49.872;6.190;2023-11-18T03:03:58;100321.13;;;4.78;90.42
63447;BME280;49577;49.872;6.190;2023-11-18T03:06:24;100323.52;;;4.79;90.68
63447;BME280;49577;49.872;6.190;2023-11-18T03:08:50;100321.92;;;4.80;90.70
63447;BME280;49577;49.872;6.190;2023-11-18T03:11:15;100321.19;;;4.82;90.65
63447;BME280;49577;49.872;6.190;2023-11-18T03:13:40;100319.55;;;4.85;90.73
63447;BME280;49577;49.872;6.190;2023-11-18T03:16:08;100324.05;;;4.85;90.69
63447;BME280;49577;49.872;6.190;2023-11-18T03:18:41;100322.32;;;4.85;90.66
63447;BME280;49577;49.872;6.190;2023-11-18T03:21:10;100319.75;;;4.84;90.64
63447;BME280;49577;49.872;6.190;2023-11-18T03:23:37;100319.84;;;4.81;90.45
63447;BME280;49577;49.872;6.190;2023-11-18T03:26:02;100316.61;;;4.79;90.77
63447;BME280;49577;49.872;6.190;2023-11-18T03:28:27;100314.17;;;4.79;90.86
63447;BME280;49577;49.872;6.190;2023-11-18T03:30:52;100308.06;;;4.81;91.03
63447;BME280;49577;49.872;6.190;2023-11-18T03:33:18;100307.16;;;4.83;90.95
63447;BME280;49577;49.872;6.190;2023-11-18T03:35:44;100304.66;;;4.86;91.09
63447;BME280;49577;49.872;6.190;2023-11-18T03:38:09;100303.10;;;4.85;90.83
63447;BME280;49577;49.872;6.190;2023-11-18T03:40:34;100299.49;;;4.85;90.88
63447;BME280;49577;49.872;6.190;2023-11-18T03:43:00;100297.10;;;4.84;90.94
63447;BME280;49577;49.872;6.190;2023-11-18T03:45:25;100294.54;;;4.81;90.95
63447;BME280;49577;49.872;6.190;2023-11-18T03:47:50;100295.69;;;4.78;90.72
63447;BME280;49577;49.872;6.190;2023-11-18T03:50:16;100298.20;;;4.75;90.82
63447;BME280;49577;49.872;6.190;2023-11-18T03:52:41;100301.13;;;4.75;91.10
63447;BME280;49577;49.872;6.190;2023-11-18T03:55:07;100297.65;;;4.76;91.18
63447;BME280;49577;49.872;6.190;2023-11-18T03:57:33;100289.48;;;4.77;91.30
63447;BME280;49577;49.872;6.190;2023-11-18T03:59:58;100292.77;;;4.77;91.33
63447;BME280;49577;49.872;6.190;2023-11-18T04:02:23;100288.95;;;4.77;91.29
63447;BME280;49577;49.872;6.190;2023-11-18T04:04:49;100286.63;;;4.80;91.62
63447;BME280;49577;49.872;6.190;2023-11-18T04:07:15;100277.55;;;4.83;91.71
63447;BME280;49577;49.872;6.190;2023-11-18T04:09:40;100280.20;;;4.87;91.78
63447;BME280;49577;49.872;6.190;2023-11-18T04:12:09;100282.20;;;4.90;91.53
63447;BME280;49577;49.872;6.190;2023-11-18T04:14:35;100292.17;;;4.93;91.61
63447;BME280;49577;49.872;6.190;2023-11-18T04:17:01;100294.20;;;4.94;91.46
63447;BME280;49577;49.872;6.190;2023-11-18T04:19:26;100289.38;;;4.93;91.40
63447;BME280;49577;49.872;6.190;2023-11-18T04:21:52;100292.27;;;4.94;91.70
63447;BME280;49577;49.872;6.190;2023-11-18T04:24:17;100285.45;;;4.97;91.75
63447;BME280;49577;49.872;6.190;2023-11-18T04:26:42;100286.27;;;4.98;91.60
63447;BME280;49577;49.872;6.190;2023-11-18T04:29:07;100284.20;;;4.98;91.38
63447;BME280;49577;49.872;6.190;2023-11-18T04:31:33;100281.83;;;4.97;91.15
63447;BME280;49577;49.872;6.190;2023-11-18T04:33:59;100283.94;;;4.95;91.14
63447;BME280;49577;49.872;6.190;2023-11-18T04:36:24;100283.48;;;4.94;91.23
63447;BME280;49577;49.872;6.190;2023-11-18T04:38:51;100281.09;;;4.93;91.30
63447;BME280;49577;49.872;6.190;2023-11-18T04:41:16;100279.53;;;4.93;91.16
63447;BME280;49577;49.872;6.190;2023-11-18T04:43:41;100274.55;;;4.91;91.26
63447;BME280;49577;49.872;6.190;2023-11-18T04:46:07;100275.23;;;4.91;91.48
63447;BME280;49577;49.872;6.190;2023-11-18T04:48:32;100274.17;;;4.92;91.56
63447;BME280;49577;49.872;6.190;2023-11-18T04:50:59;100274.46;;;4.94;91.48
63447;BME280;49577;49.872;6.190;2023-11-18T04:53:24;100269.55;;;4.96;91.59
63447;BME280;49577;49.872;6.190;2023-11-18T04:55:50;100267.92;;;4.98;91.65
63447;BME280;49577;49.872;6.190;2023-11-18T04:58:16;100267.85;;;5.01;91.56
63447;BME280;49577;49.872;6.190;2023-11-18T05:00:41;100264.14;;;5.03;91.60
63447;BME280;49577;49.872;6.190;2023-11-18T05:03:07;100262.86;;;5.06;91.41
63447;BME280;49577;49.872;6.190;2023-11-18T05:05:36;100257.45;;;5.07;91.24
63447;BME280;49577;49.872;6.190;2023-11-18T05:08:03;100253.15;;;5.06;90.92
63447;BME280;49577;49.872;6.190;2023-11-18T05:10:28;100243.52;;;5.04;90.88
63447;BME280;49577;49.872;6.190;2023-11-18T05:12:53;100239.55;;;5.04;91.00
63447;BME280;49577;49.872;6.190;2023-11-18T05:15:21;100238.14;;;5.04;90.93
63447;BME280;49577;49.872;6.190;2023-11-18T05:17:49;100234.00;;;5.03;90.78
63447;BME280;49577;49.872;6.190;2023-11-18T05:20:15;100243.00;;;5.04;90.94
63447;BME280;49577;49.872;6.190;2023-11-18T05:22:40;100243.92;;;5.02;90.73
63447;BME280;49577;49.872;6.190;2023-11-18T05:25:06;100244.50;;;5.00;90.76
63447;BME280;49577;49.872;6.190;2023-11-18T05:27:32;100247.27;;;5.00;90.96
63447;BME280;49577;49.872;6.190;2023-11-18T05:29:58;100246.75;;;5.00;90.92
63447;BME280;49577;49.872;6.190;2023-11-18T05:32:26;100249.52;;;5.00;90.80
63447;BME280;49577;49.872;6.190;2023-11-18T05:34:52;100250.86;;;5.02;90.98
63447;BME280;49577;49.872;6.190;2023-11-18T05:37:19;100244.75;;;5.03;90.84
63447;BME280;49577;49.872;6.190;2023-11-18T05:39:44;100245.72;;;5.06;91.07
63447;BME280;49577;49.872;6.190;2023-11-18T05:42:10;100238.52;;;5.10;91.07
63447;BME280;49577;49.872;6.190;2023-11-18T05:44:36;100228.36;;;5.07;90.62
63447;BME280;49577;49.872;6.190;2023-11-18T05:47:03;100217.89;;;5.04;90.63
63447;BME280;49577;49.872;6.190;2023-11-18T05:49:28;100223.32;;;5.02;90.73
63447;BME280;49577;49.872;6.190;2023-11-18T05:51:53;100229.43;;;5.00;90.78
63447;BME280;49577;49.872;6.190;2023-11-18T05:54:19;100224.54;;;4.96;90.71
63447;BME280;49577;49.872;6.190;2023-11-18T05:56:44;100223.23;;;4.94;90.90
63447;BME280;49577;49.872;6.190;2023-11-18T05:59:09;100221.17;;;4.93;91.01
63447;BME280;49577;49.872;6.190;2023-11-18T06:01:36;100221.92;;;4.91;91.06
63447;BME280;49577;49.872;6.190;2023-11-18T06:04:02;100222.79;;;4.91;91.27
63447;BME280;49577;49.872;6.190;2023-11-18T06:06:27;100220.70;;;4.92;91.40
63447;BME280;49577;49.872;6.190;2023-11-18T06:08:52;100221.40;;;4.91;91.22
63447;BME280;49577;49.872;6.190;2023-11-18T06:11:18;100212.56;;;4.91;91.50
63447;BME280;49577;49.872;6.190;2023-11-18T06:16:21;100204.54;;;4.88;91.44
63447;BME280;49577;49.872;6.190;2023-11-18T06:18:47;100209.06;;;4.87;91.44
63447;BME280;49577;49.872;6.190;2023-11-18T06:21:16;100207.71;;;4.86;91.43
63447;BME280;49577;49.872;6.190;2023-11-18T06:23:43;100203.73;;;4.86;91.77
63447;BME280;49577;49.872;6.190;2023-11-18T06:26:08;100202.65;;;4.88;92.00
63447;BME280;49577;49.872;6.190;2023-11-18T06:28:46;100197.44;;;4.88;91.85
63447;BME280;49577;49.872;6.190;2023-11-18T06:31:11;100194.60;;;4.90;91.85
63447;BME280;49577;49.872;6.190;2023-11-18T06:33:37;100201.84;;;4.91;91.94
63447;BME280;49577;49.872;6.190;2023-11-18T06:36:04;100196.27;;;4.92;91.95
63447;BME280;49577;49.872;6.190;2023-11-18T06:38:29;100193.27;;;4.94;92.14
63447;BME280;49577;49.872;6.190;2023-11-18T06:40:55;100187.00;;;4.95;92.01
63447;BME280;49577;49.872;6.190;2023-11-18T06:43:23;100188.84;;;4.97;92.06
63447;BME280;49577;49.872;6.190;2023-11-18T06:45:48;100180.80;;;4.99;92.04
63447;BME280;49577;49.872;6.190;2023-11-18T06:48:14;100180.95;;;5.00;91.88
63447;BME280;49577;49.872;6.190;2023-11-18T06:50:39;100174.20;;;5.01;91.88
63447;BME280;49577;49.872;6.190;2023-11-18T06:53:08;100172.98;;;5.01;91.93
63447;BME280;49577;49.872;6.190;2023-11-18T06:55:35;100177.60;;;5.02;92.08
63447;BME280;49577;49.872;6.190;2023-11-18T06:58:01;100184.82;;;5.04;91.91
63447;BME280;49577;49.872;6.190;2023-11-18T07:00:27;100183.40;;;5.05;92.05
63447;BME280;49577;49.872;6.190;2023-11-18T07:02:54;100178.86;;;5.06;91.99
63447;BME280;49577;49.872;6.190;2023-11-18T07:05:19;100187.20;;;5.06;92.04
63447;BME280;49577;49.872;6.190;2023-11-18T07:07:45;100192.19;;;5.12;92.60
63447;BME280;49577;49.872;6.190;2023-11-18T07:10:11;100191.05;;;5.15;92.24
63447;BME280;49577;49.872;6.190;2023-11-18T07:12:38;100192.22;;;5.17;91.97
63447;BME280;49577;49.872;6.190;2023-11-18T07:15:04;100191.14;;;5.18;92.02
63447;BME280;49577;49.872;6.190;2023-11-18T07:17:29;100196.27;;;5.20;91.93
63447;BME280;49577;49.872;6.190;2023-11-18T07:19:54;100193.65;;;5.21;91.84
63447;BME280;49577;49.872;6.190;2023-11-18T07:22:20;100194.70;;;5.20;91.74
63447;BME280;49577;49.872;6.190;2023-11-18T07:24:46;100192.39;;;5.22;91.88
63447;BME280;49577;49.872;6.190;2023-11-18T07:27:11;100188.13;;;5.26;91.99
63447;BME280;49577;49.872;6.190;2023-11-18T07:29:36;100192.67;;;5.29;91.72
63447;BME280;49577;49.872;6.190;2023-11-18T07:32:01;100186.39;;;5.31;91.70
63447;BME280;49577;49.872;6.190;2023-11-18T07:34:30;100186.61;;;5.35;91.85
63447;BME280;49577;49.872;6.190;2023-11-18T07:36:57;100191.84;;;5.40;91.72
63447;BME280;49577;49.872;6.190;2023-11-18T07:39:22;100193.53;;;5.41;91.50
63447;BME280;49577;49.872;6.190;2023-11-18T07:41:55;100191.30;;;5.40;91.48
63447;BME280;49577;49.872;6.190;2023-11-18T07:44:24;100198.74;;;5.41;91.48
63447;BME280;49577;49.872;6.190;2023-11-18T07:46:50;100207.22;;;5.41;91.47
63447;BME280;49577;49.872;6.190;2023-11-18T07:49:15;100200.63;;;5.42;91.39
63447;BME280;49577;49.872;6.190;2023-11-18T07:51:41;100188.33;;;5.42;91.36
63447;BME280;49577;49.872;6.190;2023-11-18T07:54:07;100181.02;;;5.43;91.43
63447;BME280;49577;49.872;6.190;2023-11-18T07:56:32;100174.53;;;5.45;91.53
63447;BME280;49577;49.872;6.190;2023-11-18T07:58:57;100173.26;;;5.47;91.55
63447;BME280;49577;49.872;6.190;2023-11-18T08:01:23;100172.30;;;5.49;91.49
63447;BME280;49577;49.872;6.190;2023-11-18T08:03:48;100167.79;;;5.49;91.31
63447;BME280;49577;49.872;6.190;2023-11-18T08:06:15;100163.97;;;5.50;91.33
63447;BME280;49577;49.872;6.190;2023-11-18T08:08:42;100158.91;;;5.51;91.36
63447;BME280;49577;49.872;6.190;2023-11-18T08:11:10;100165.61;;;5.52;91.32
63447;BME280;49577;49.872;6.190;2023-11-18T08:13:35;100172.15;;;5.53;91.22
63447;BME280;49577;49.872;6.190;2023-11-18T08:16:00;100178.02;;;5.53;91.38
63447;BME280;49577;49.872;6.190;2023-11-18T08:18:26;100184.63;;;5.54;91.51
63447;BME280;49577;49.872;6.190;2023-11-18T08:20:52;100188.08;;;5.54;91.48
63447;BME280;49577;49.872;6.190;2023-11-18T08:23:18;100196.16;;;5.56;91.59
63447;BME280;49577;49.872;6.190;2023-11-18T08:25:44;100198.80;;;5.60;91.54
63447;BME280;49577;49.872;6.190;2023-11-18T08:28:11;100199.94;;;5.62;91.56
63447;BME280;49577;49.872;6.190;2023-11-18T08:30:37;100202.01;;;5.62;91.39
63447;BME280;49577;49.872;6.190;2023-11-18T08:33:02;100203.05;;;5.63;91.55
63447;BME280;49577;49.872;6.190;2023-11-18T08:35:29;100206.80;;;5.65;91.53
63447;BME280;49577;49.872;6.190;2023-11-18T08:37:54;100206.70;;;5.67;91.44
63447;BME280;49577;49.872;6.190;2023-11-18T08:40:20;100201.02;;;5.71;91.35
63447;BME280;49577;49.872;6.190;2023-11-18T08:42:50;100208.58;;;5.74;91.36
63447;BME280;49577;49.872;6.190;2023-11-18T08:45:19;100205.80;;;5.79;91.37
63447;BME280;49577;49.872;6.190;2023-11-18T08:47:46;100204.42;;;5.83;91.28
63447;BME280;49577;49.872;6.190;2023-11-18T08:50:15;100204.67;;;5.87;91.06
63447;BME280;49577;49.872;6.190;2023-11-18T08:52:42;100199.20;;;5.90;91.13
63447;BME280;49577;49.872;6.190;2023-11-18T08:55:09;100191.64;;;5.93;90.97
63447;BME280;49577;49.872;6.190;2023-11-18T08:57:45;100190.42;;;5.99;90.97
63447;BME280;49577;49.872;6.190;2023-11-18T09:00:17;100191.79;;;6.05;90.90
63447;BME280;49577;49.872;6.190;2023-11-18T09:03:02;100188.45;;;6.10;90.78
63447;BME280;49577;49.872;6.190;2023-11-18T09:05:30;100188.14;;;6.14;90.58
63447;BME280;49577;49.872;6.190;2023-11-18T09:07:57;100186.96;;;6.18;90.57
63447;BME280;49577;49.872;6.190;2023-11-18T09:10:23;100183.73;;;6.21;90.44
63447;BME280;49577;49.872;6.190;2023-11-18T09:12:48;100184.95;;;6.21;90.17
63447;BME280;49577;49.872;6.190;2023-11-18T09:15:13;100184.11;;;6.21;90.26
63447;BME280;49577;49.872;6.190;2023-11-18T09:17:47;100183.74;;;6.21;90.23
63447;BME280;49577;49.872;6.190;2023-11-18T09:20:13;100187.70;;;6.22;90.36
63447;BME280;49577;49.872;6.190;2023-11-18T09:22:38;100184.86;;;6.23;90.50
63447;BME280;49577;49.872;6.190;2023-11-18T09:25:04;100189.27;;;6.27;90.52
63447;BME280;49577;49.872;6.190;2023-11-18T09:27:34;100187.59;;;6.30;90.38
63447;BME280;49577;49.872;6.190;2023-11-18T09:29:59;100180.41;;;6.31;90.43
63447;BME280;49577;49.872;6.190;2023-11-18T09:32:25;100179.34;;;6.32;90.22
63447;BME280;49577;49.872;6.190;2023-11-18T09:34:51;100181.14;;;6.36;90.16
63447;BME280;49577;49.872;6.190;2023-11-18T09:37:18;100181.39;;;6.38;90.09
63447;BME280;49577;49.872;6.190;2023-11-18T09:39:45;100183.89;;;6.41;90.33
63447;BME280;49577;49.872;6.190;2023-11-18T09:42:11;100186.27;;;6.43;90.28
63447;BME280;49577;49.872;6.190;2023-11-18T09:44:39;100189.48;;;6.45;90.41
63447;BME280;49577;49.872;6.190;2023-11-18T09:47:07;100188.31;;;6.49;90.42
63447;BME280;49577;49.872;6.190;2023-11-18T09:49:34;100183.83;;;6.52;90.46
63447;BME280;49577;49.872;6.190;2023-11-18T09:52:05;100184.11;;;6.54;90.26
63447;BME280;49577;49.872;6.190;2023-11-18T09:54:33;100185.94;;;6.56;90.30
63447;BME280;49577;49.872;6.190;2023-11-18T09:57:19;100185.48;;;6.59;90.41
63447;BME280;49577;49.872;6.190;2023-11-18T10:02:19;100174.63;;;6.67;90.51
63447;BME280;49577;49.872;6.190;2023-11-18T10:04:47;100164.98;;;6.68;90.53
63447;BME280;49577;49.872;6.190;2023-11-18T10:07:14;100158.49;;;6.70;90.57
63447;BME280;49577;49.872;6.190;2023-11-18T10:09:44;100153.59;;;6.71;90.38
63447;BME280;49577;49.872;6.190;2023-11-18T10:12:10;100153.37;;;6.73;90.47
63447;BME280;49577;49.872;6.190;2023-11-18T10:14:42;100152.59;;;6.75;90.39
63447;BME280;49577;49.872;6.190;2023-11-18T10:17:08;100152.49;;;6.77;90.32
63447;BME280;49577;49.872;6.190;2023-11-18T10:22:37;100132.95;;;6.89;90.57
63447;BME280;49577;49.872;6.190;2023-11-18T10:25:03;100127.36;;;6.94;90.38
63447;BME280;49577;49.872;6.190;2023-11-18T10:27:31;100114.73;;;6.98;90.05
63447;BME280;49577;49.872;6.190;2023-11-18T10:32:22;100094.30;;;7.00;89.70
63447;BME280;49577;49.872;6.190;2023-11-18T10:34:48;100090.62;;;7.01;89.50
63447;BME280;49577;49.872;6.190;2023-11-18T10:37:14;100086.44;;;7.01;89.15
63447;BME280;49577;49.872;6.190;2023-11-18T10:39:41;100082.59;;;7.02;88.76
63447;BME280;49577;49.872;6.190;2023-11-18T10:42:11;100081.02;;;7.02;88.74
63447;BME280;49577;49.872;6.190;2023-11-18T10:44:36;100074.20;;;7.03;88.58
63447;BME280;49577;49.872;6.190;2023-11-18T10:47:01;100075.48;;;7.02;88.52
63447;BME280;49577;49.872;6.190;2023-11-18T10:49:27;100073.92;;;7.01;88.66
63447;BME280;49577;49.872;6.190;2023-11-18T10:51:54;100070.97;;;7.02;88.57
63447;BME280;49577;49.872;6.190;2023-11-18T10:54:21;100061.23;;;7.02;88.72
63447;BME280;49577;49.872;6.190;2023-11-18T10:56:47;100056.00;;;7.02;88.80
63447;BME280;49577;49.872;6.190;2023-11-18T10:59:13;100053.81;;;7.05;88.65
63447;BME280;49577;49.872;6.190;2023-11-18T11:01:41;100056.48;;;7.08;88.27
63447;BME280;49577;49.872;6.190;2023-11-18T11:04:13;100055.88;;;7.09;88.13
63447;BME280;49577;49.872;6.190;2023-11-18T11:06:42;100050.02;;;7.08;87.84
63447;BME280;49577;49.872;6.190;2023-11-18T11:09:08;100051.23;;;7.08;88.03
63447;BME280;49577;49.872;6.190;2023-11-18T11:12:15;100051.45;;;7.12;88.20
63447;BME280;49577;49.872;6.190;2023-11-18T11:14:34;100053.00;;;7.12;88.04
63447;BME280;49577;49.872;6.190;2023-11-18T11:17:07;100053.15;;;7.12;88.07
63447;BME280;49577;49.872;6.190;2023-11-18T11:25:35;100045.88;;;6.99;87.83
63447;BME280;49577;49.872;6.190;2023-11-18T11:28:15;100039.73;;;6.97;87.98
63447;BME280;49577;49.872;6.190;2023-11-18T11:31:26;100032.06;;;6.97;88.32
63447;BME280;49577;49.872;6.190;2023-11-18T11:33:46;100028.78;;;7.01;88.39
63447;BME280;49577;49.872;6.190;2023-11-18T11:36:17;100019.78;;;7.04;88.58
63447;BME280;49577;49.872;6.190;2023-11-18T11:38:47;100014.96;;;7.07;88.73
63447;BME280;49577;49.872;6.190;2023-11-18T11:41:13;100008.28;;;7.09;88.72
63447;BME280;49577;49.872;6.190;2023-11-18T11:43:51;99996.63;;;7.10;88.94
63447;BME280;49577;49.872;6.190;2023-11-18T11:46:20;99989.51;;;7.09;89.05
63447;BME280;49577;49.872;6.190;2023-11-18T11:48:48;99984.00;;;7.08;89.32
63447;BME280;49577;49.872;6.190;2023-11-18T11:56:42;99977.38;;;6.97;89.70
63447;BME280;49577;49.872;6.190;2023-11-18T11:59:08;99981.45;;;6.95;89.89
63447;BME280;49577;49.872;6.190;2023-11-18T12:01:36;99983.02;;;6.95;90.07
63447;BME280;49577;49.872;6.190;2023-11-18T12:04:08;99986.58;;;6.93;89.83
63447;BME280;49577;49.872;6.190;2023-11-18T12:06:41;99992.92;;;6.90;89.86
63447;BME280;49577;49.872;6.190;2023-11-18T12:09:08;99991.27;;;6.89;89.79
63447;BME280;49577;49.872;6.190;2023-11-18T12:11:35;99988.33;;;6.88;89.83
63447;BME280;49577;49.872;6.190;2023-11-18T12:14:11;99983.42;;;6.90;89.82
63447;BME280;49577;49.872;6.190;2023-11-18T12:19:32;99961.85;;;6.98;89.65
63447;BME280;49577;49.872;6.190;2023-11-18T12:22:02;99952.44;;;7.03;89.41
63447;BME280;49577;49.872;6.190;2023-11-18T12:24:38;99943.04;;;7.07;89.18
63447;BME280;49577;49.872;6.190;2023-11-18T12:27:04;99923.48;;;7.14;89.35
63447;BME280;49577;49.872;6.190;2023-11-18T12:29:35;99913.44;;;7.21;89.19
63447;BME280;49577;49.872;6.190;2023-11-18T12:32:06;99894.01;;;7.25;88.55
63447;BME280;49577;49.872;6.190;2023-11-18T12:34:50;99877.38;;;7.24;88.35
63447;BME280;49577;49.872;6.190;2023-11-18T12:47:53;99817.42;;;7.20;89.10
63447;BME280;49577;49.872;6.190;2023-11-18T12:50:20;99826.15;;;7.15;89.54
63447;BME280;49577;49.872;6.190;2023-11-18T12:52:52;99833.64;;;7.07;89.59
63447;BME280;49577;49.872;6.190;2023-11-18T12:55:18;99845.88;;;7.01;89.90
63447;BME280;49577;49.872;6.190;2023-11-18T12:57:46;99850.91;;;7.02;90.10
63447;BME280;49577;49.872;6.190;2023-11-18T13:00:12;99853.19;;;7.01;90.11
63447;BME280;49577;49.872;6.190;2023-11-18T13:02:39;99857.90;;;7.00;90.59
63447;BME280;49577;49.872;6.190;2023-11-18T13:05:05;99855.88;;;6.99;90.45
63447;BME280;49577;49.872;6.190;2023-11-18T13:07:34;99855.38;;;6.99;90.59
63447;BME280;49577;49.872;6.190;2023-11-18T13:10:01;99851.73;;;7.02;90.85
63447;BME280;49577;49.872;6.190;2023-11-18T13:12:27;99846.06;;;7.05;90.52
63447;BME280;49577;49.872;6.190;2023-11-18T13:14:53;99843.70;;;7.07;90.43
63447;BME280;49577;49.872;6.190;2023-11-18T13:17:18;99844.27;;;7.10;90.49
63447;BME280;49577;49.872;6.190;2023-11-18T13:19:44;99840.83;;;7.13;90.69
63447;BME280;49577;49.872;6.190;2023-11-18T13:22:13;99836.54;;;7.12;90.47
63447;BME280;49577;49.872;6.190;2023-11-18T13:24:39;99837.43;;;7.12;90.46
63447;BME280;49577;49.872;6.190;2023-11-18T13:27:04;99838.41;;;7.13;90.63
63447;BME280;49577;49.872;6.190;2023-11-18T13:29:31;99836.03;;;7.15;90.86
63447;BME280;49577;49.872;6.190;2023-11-18T13:31:57;99832.21;;;7.19;90.93
63447;BME280;49577;49.872;6.190;2023-11-18T13:34:25;99831.91;;;7.22;90.86
63447;BME280;49577;49.872;6.190;2023-11-18T13:36:50;99826.36;;;7.22;90.69
63447;BME280;49577;49.872;6.190;2023-11-18T13:39:19;99819.41;;;7.22;90.61